Startpagina
METAR-TAF:

METAR-TAF

Vliegvelden :

Luchthaven Herat

Herat, Afghanistan

breedte: 34-13N, lengte: 062-13E, hoogte: 964 m

Actueel weer

Dit bericht is 1 uur en het 18 minuten geleden gemaakt, om 08:55 UTC
Wind 8 kt uit het westnoordwesten
Temperatuur 27°C
Vochtigheid 14%
Druk 1019 hPa
Zicht 10 km of meer
geen wolken onder 1500 m en geen cumulonimbus

METAR: OAHR 230855Z 29008KT CAVOK 27/M03 Q1019 RMK A3010 BLU

Tijdstip: 14:43 (10:13 UTC)

Verwachting

Dit bericht is 5 uur en het 13 minuten geleden gemaakt, om 05:00 UTC
Verwachting geldig van 23 om 06 UTC tot 24 om 06 UTC
Wind 8 kt uit het noorden
Zicht 10 km of meer
geen wolken onder 1500 m en geen cumulonimbus
Tijdelijke
van 23 om 08 UTC tot 23 om 13 UTC
Wind 12 kt uit het noordnoordoosten met uitschieters tot 22 kt
Wijzigt naar
van 23 om 18 UTC tot 23 om 20 UTC
Wind 6 kt uit het noorden

TAF: OAHR 230500Z 2306/2406 36008KT CAVOK TEMPO 2308/2313 02012G22KT BECMG 2318/2320 35006KT

Waarnemingen en weersverwachtingen van meer dan 4000 vliegvelden (METAR en TAF).

De beschikbare stations zijn de gele en rode punten op de kaart.

Ga met uw muis naar het station om de naam te zien.

Klik dan om waarnemingen en weersverwachtingen te zien.

kaart wijzigen: klik op de groene knoppen met een zwart kruis om in te zoomen, op de groene knop met een streepje om uit te zoomen of op de groene pijlen voor aangrenzende kaarten.


METAR-TAF: